sensor_id;sensor_type;location;lat;lon;timestamp;pressure;altitude;pressure_sealevel;temperature;humidity
75629;BME280;64213;46.452;16.994;2023-04-12T00:01:51;99698.59;;;7.04;72.01
75629;BME280;64213;46.452;16.994;2023-04-12T00:04:54;99694.78;;;6.93;72.20
75629;BME280;64213;46.452;16.994;2023-04-12T00:07:56;99686.56;;;6.84;72.52
75629;BME280;64213;46.452;16.994;2023-04-12T00:11:00;99688.06;;;6.72;72.97
75629;BME280;64213;46.452;16.994;2023-04-12T00:14:02;99681.66;;;6.60;73.55
75629;BME280;64213;46.452;16.994;2023-04-12T00:17:05;99674.28;;;6.51;73.80
75629;BME280;64213;46.452;16.994;2023-04-12T00:20:07;99680.78;;;6.44;74.31
75629;BME280;64213;46.452;16.994;2023-04-12T00:23:13;99686.53;;;6.35;74.35
75629;BME280;64213;46.452;16.994;2023-04-12T00:26:16;99688.72;;;6.26;74.77
75629;BME280;64213;46.452;16.994;2023-04-12T00:29:18;99688.19;;;6.20;74.85
75629;BME280;64213;46.452;16.994;2023-04-12T00:32:20;99685.94;;;6.12;75.06
75629;BME280;64213;46.452;16.994;2023-04-12T00:35:22;99678.59;;;6.19;75.01
75629;BME280;64213;46.452;16.994;2023-04-12T00:38:24;99682.53;;;6.27;74.07
75629;BME280;64213;46.452;16.994;2023-04-12T00:41:27;99690.25;;;6.31;73.75
75629;BME280;64213;46.452;16.994;2023-04-12T00:44:31;99686.53;;;6.35;74.13
75629;BME280;64213;46.452;16.994;2023-04-12T00:47:37;99683.22;;;6.31;74.08
75629;BME280;64213;46.452;16.994;2023-04-12T00:50:40;99679.31;;;6.22;74.57
75629;BME280;64213;46.452;16.994;2023-04-12T00:53:45;99669.19;;;6.15;74.94
75629;BME280;64213;46.452;16.994;2023-04-12T00:56:48;99671.53;;;6.03;75.18
75629;BME280;64213;46.452;16.994;2023-04-12T00:59:51;99677.25;;;5.94;75.43
75629;BME280;64213;46.452;16.994;2023-04-12T01:02:53;99671.44;;;5.88;75.32
75629;BME280;64213;46.452;16.994;2023-04-12T01:06:10;99678.66;;;5.82;75.29
75629;BME280;64213;46.452;16.994;2023-04-12T01:09:30;99676.34;;;5.76;75.37
75629;BME280;64213;46.452;16.994;2023-04-12T01:12:44;99679.13;;;5.73;75.64
75629;BME280;64213;46.452;16.994;2023-04-12T01:16:02;99669.88;;;5.66;76.18
75629;BME280;64213;46.452;16.994;2023-04-12T01:22:44;99667.41;;;5.46;76.90
75629;BME280;64213;46.452;16.994;2023-04-12T01:26:29;99665.97;;;5.39;77.19
75629;BME280;64213;46.452;16.994;2023-04-12T01:29:36;99669.91;;;5.30;77.07
75629;BME280;64213;46.452;16.994;2023-04-12T01:32:40;99668.44;;;5.24;77.62
75629;BME280;64213;46.452;16.994;2023-04-12T01:35:45;99659.91;;;5.19;77.54
75629;BME280;64213;46.452;16.994;2023-04-12T01:38:50;99664.31;;;5.19;77.46
75629;BME280;64213;46.452;16.994;2023-04-12T01:41:57;99663.34;;;5.21;77.60
75629;BME280;64213;46.452;16.994;2023-04-12T01:45:01;99654.53;;;5.22;77.52
75629;BME280;64213;46.452;16.994;2023-04-12T01:48:05;99659.78;;;5.22;77.46
75629;BME280;64213;46.452;16.994;2023-04-12T01:54:30;99655.38;;;5.23;77.06
75629;BME280;64213;46.452;16.994;2023-04-12T01:57:34;99651.78;;;5.06;77.69
75629;BME280;64213;46.452;16.994;2023-04-12T02:00:39;99656.47;;;5.00;78.72
75629;BME280;64213;46.452;16.994;2023-04-12T02:03:44;99652.66;;;4.88;78.67
75629;BME280;64213;46.452;16.994;2023-04-12T02:06:50;99649.63;;;4.78;78.87
75629;BME280;64213;46.452;16.994;2023-04-12T02:09:53;99653.16;;;4.77;79.40
75629;BME280;64213;46.452;16.994;2023-04-12T02:12:59;99648.06;;;4.74;79.23
75629;BME280;64213;46.452;16.994;2023-04-12T02:16:01;99642.84;;;4.74;78.91
75629;BME280;64213;46.452;16.994;2023-04-12T02:19:04;99647.12;;;4.75;78.64
75629;BME280;64213;46.452;16.994;2023-04-12T02:22:09;99642.63;;;4.79;78.50
75629;BME280;64213;46.452;16.994;2023-04-12T02:25:11;99640.00;;;4.79;78.01
75629;BME280;64213;46.452;16.994;2023-04-12T02:28:14;99646.25;;;4.76;78.17
75629;BME280;64213;46.452;16.994;2023-04-12T02:31:16;99640.22;;;4.74;78.11
75629;BME280;64213;46.452;16.994;2023-04-12T02:34:19;99641.00;;;4.76;77.77
75629;BME280;64213;46.452;16.994;2023-04-12T02:37:24;99628.66;;;4.78;77.07
75629;BME280;64213;46.452;16.994;2023-04-12T02:40:29;99624.75;;;4.87;76.31
75629;BME280;64213;46.452;16.994;2023-04-12T02:43:32;99618.25;;;4.96;75.40
75629;BME280;64213;46.452;16.994;2023-04-12T02:46:34;99618.00;;;5.00;74.78
75629;BME280;64213;46.452;16.994;2023-04-12T02:49:37;99611.41;;;5.10;74.21
75629;BME280;64213;46.452;16.994;2023-04-12T02:52:39;99613.72;;;5.17;73.78
75629;BME280;64213;46.452;16.994;2023-04-12T02:55:42;99622.47;;;5.17;74.22
75629;BME280;64213;46.452;16.994;2023-04-12T02:58:44;99627.56;;;5.20;73.67
75629;BME280;64213;46.452;16.994;2023-04-12T03:01:46;99627.91;;;5.12;73.93
75629;BME280;64213;46.452;16.994;2023-04-12T03:04:52;99635.22;;;5.06;74.40
75629;BME280;64213;46.452;16.994;2023-04-12T03:07:55;99619.31;;;4.92;75.23
75629;BME280;64213;46.452;16.994;2023-04-12T03:10:57;99628.22;;;4.87;75.92
75629;BME280;64213;46.452;16.994;2023-04-12T03:14:00;99620.09;;;4.75;76.57
75629;BME280;64213;46.452;16.994;2023-04-12T03:17:02;99617.84;;;4.67;77.21
75629;BME280;64213;46.452;16.994;2023-04-12T03:20:06;99619.97;;;4.59;77.78
75629;BME280;64213;46.452;16.994;2023-04-12T03:23:11;99618.63;;;4.50;78.20
75629;BME280;64213;46.452;16.994;2023-04-12T03:26:13;99630.38;;;4.41;78.70
75629;BME280;64213;46.452;16.994;2023-04-12T03:29:16;99624.47;;;4.36;79.05
75629;BME280;64213;46.452;16.994;2023-04-12T03:32:19;99613.37;;;4.31;79.11
75629;BME280;64213;46.452;16.994;2023-04-12T03:35:24;99619.53;;;4.30;78.51
75629;BME280;64213;46.452;16.994;2023-04-12T03:39:26;99600.88;;;4.93;76.84
75629;BME280;64213;46.452;16.994;2023-04-12T03:42:29;99600.88;;;4.93;76.84
75629;BME280;64213;46.452;16.994;2023-04-12T03:45:34;99597.69;;;4.31;78.60
75629;BME280;64213;46.452;16.994;2023-04-12T03:48:36;99594.41;;;4.45;78.27
75629;BME280;64213;46.452;16.994;2023-04-12T03:51:38;99585.84;;;4.41;78.19
75629;BME280;64213;46.452;16.994;2023-04-12T03:54:43;99580.75;;;4.38;77.72
75629;BME280;64213;46.452;16.994;2023-04-12T03:57:46;99576.00;;;4.47;76.84
75629;BME280;64213;46.452;16.994;2023-04-12T04:00:49;99579.78;;;4.41;77.34
75629;BME280;64213;46.452;16.994;2023-04-12T04:03:52;99587.97;;;4.33;77.46
75629;BME280;64213;46.452;16.994;2023-04-12T04:06:54;99591.94;;;4.23;77.29
75629;BME280;64213;46.452;16.994;2023-04-12T04:09:56;99588.03;;;4.13;77.50
75629;BME280;64213;46.452;16.994;2023-04-12T04:12:59;99596.25;;;4.05;77.76
75629;BME280;64213;46.452;16.994;2023-04-12T04:16:04;99592.38;;;3.93;78.23
75629;BME280;64213;46.452;16.994;2023-04-12T04:19:06;99592.00;;;3.82;78.63
75629;BME280;64213;46.452;16.994;2023-04-12T04:22:08;99592.59;;;3.68;78.98
75629;BME280;64213;46.452;16.994;2023-04-12T04:25:11;99589.28;;;3.65;79.27
75629;BME280;64213;46.452;16.994;2023-04-12T04:28:15;99591.22;;;3.60;79.80
75629;BME280;64213;46.452;16.994;2023-04-12T04:31:17;99593.91;;;3.58;80.56
75629;BME280;64213;46.452;16.994;2023-04-12T04:34:20;99593.50;;;3.47;81.73
75629;BME280;64213;46.452;16.994;2023-04-12T04:37:23;99594.00;;;3.35;82.18
75629;BME280;64213;46.452;16.994;2023-04-12T04:40:28;99596.75;;;3.32;82.73
75629;BME280;64213;46.452;16.994;2023-04-12T04:43:30;99590.81;;;3.28;82.85
75629;BME280;64213;46.452;16.994;2023-04-12T04:46:32;99586.72;;;3.22;83.07
75629;BME280;64213;46.452;16.994;2023-04-12T04:49:35;99598.78;;;3.25;83.25
75629;BME280;64213;46.452;16.994;2023-04-12T04:52:38;99597.59;;;3.12;83.77
75629;BME280;64213;46.452;16.994;2023-04-12T04:55:41;99600.56;;;3.02;84.48
75629;BME280;64213;46.452;16.994;2023-04-12T04:58:44;99595.53;;;2.98;84.46
75629;BME280;64213;46.452;16.994;2023-04-12T05:01:46;99607.38;;;3.07;84.31
75629;BME280;64213;46.452;16.994;2023-04-12T05:04:49;99602.09;;;3.08;84.42
75629;BME280;64213;46.452;16.994;2023-04-12T05:07:52;99603.53;;;3.15;84.28
75629;BME280;64213;46.452;16.994;2023-04-12T05:10:55;99612.87;;;3.21;84.14
75629;BME280;64213;46.452;16.994;2023-04-12T05:13:58;99602.06;;;3.30;84.07
75629;BME280;64213;46.452;16.994;2023-04-12T05:17:00;99610.25;;;3.43;83.73
75629;BME280;64213;46.452;16.994;2023-04-12T05:20:02;99603.44;;;3.59;83.33
75629;BME280;64213;46.452;16.994;2023-04-12T05:23:15;99610.25;;;3.84;83.12
75629;BME280;64213;46.452;16.994;2023-04-12T05:26:18;99603.47;;;4.19;81.84
75629;BME280;64213;46.452;16.994;2023-04-12T05:29:20;99602.97;;;4.86;79.83
75629;BME280;64213;46.452;16.994;2023-04-12T05:32:23;99598.41;;;5.61;76.84
75629;BME280;64213;46.452;16.994;2023-04-12T05:35:26;99599.44;;;6.09;74.14
75629;BME280;64213;46.452;16.994;2023-04-12T05:38:28;99609.47;;;6.18;73.57
75629;BME280;64213;46.452;16.994;2023-04-12T05:41:30;99617.56;;;6.47;72.71
75629;BME280;64213;46.452;16.994;2023-04-12T05:44:37;99620.72;;;6.85;71.71
75629;BME280;64213;46.452;16.994;2023-04-12T05:47:39;99625.31;;;6.66;71.57
75629;BME280;64213;46.452;16.994;2023-04-12T05:50:52;99608.16;;;7.06;71.28
75629;BME280;64213;46.452;16.994;2023-04-12T05:53:55;99618.00;;;7.18;70.76
75629;BME280;64213;46.452;16.994;2023-04-12T05:56:57;99617.16;;;7.48;69.68
75629;BME280;64213;46.452;16.994;2023-04-12T05:59:59;99624.72;;;7.54;69.59
75629;BME280;64213;46.452;16.994;2023-04-12T06:03:02;99622.88;;;7.71;67.81
75629;BME280;64213;46.452;16.994;2023-04-12T06:06:06;99628.94;;;8.01;67.40
75629;BME280;64213;46.452;16.994;2023-04-12T06:09:09;99624.06;;;8.24;66.60
75629;BME280;64213;46.452;16.994;2023-04-12T06:12:11;99624.75;;;8.56;65.17
75629;BME280;64213;46.452;16.994;2023-04-12T06:15:14;99632.38;;;9.02;63.52
75629;BME280;64213;46.452;16.994;2023-04-12T06:18:16;99633.78;;;9.07;64.39
75629;BME280;64213;46.452;16.994;2023-04-12T06:21:18;99625.13;;;9.32;62.89
75629;BME280;64213;46.452;16.994;2023-04-12T06:24:21;99619.75;;;9.47;61.86
75629;BME280;64213;46.452;16.994;2023-04-12T06:27:23;99618.38;;;9.81;61.17
75629;BME280;64213;46.452;16.994;2023-04-12T06:30:26;99626.53;;;10.29;59.88
75629;BME280;64213;46.452;16.994;2023-04-12T06:33:29;99615.00;;;10.92;57.88
75629;BME280;64213;46.452;16.994;2023-04-12T06:36:31;99616.69;;;11.41;56.42
75629;BME280;64213;46.452;16.994;2023-04-12T06:39:33;99626.91;;;11.35;54.74
75629;BME280;64213;46.452;16.994;2023-04-12T06:42:36;99625.97;;;11.36;56.11
75629;BME280;64213;46.452;16.994;2023-04-12T06:45:38;99625.38;;;11.79;55.39
75629;BME280;64213;46.452;16.994;2023-04-12T06:48:40;99624.94;;;11.85;55.21
75629;BME280;64213;46.452;16.994;2023-04-12T06:51:43;99617.56;;;12.35;53.22
75629;BME280;64213;46.452;16.994;2023-04-12T06:54:45;99621.66;;;12.39;52.42
75629;BME280;64213;46.452;16.994;2023-04-12T06:57:47;99612.66;;;12.96;51.59
75629;BME280;64213;46.452;16.994;2023-04-12T07:00:53;99620.72;;;13.06;50.06
75629;BME280;64213;46.452;16.994;2023-04-12T07:03:55;99612.84;;;13.27;51.04
75629;BME280;64213;46.452;16.994;2023-04-12T07:06:58;99605.00;;;13.25;50.13
75629;BME280;64213;46.452;16.994;2023-04-12T07:10:00;99610.63;;;13.43;48.32
75629;BME280;64213;46.452;16.994;2023-04-12T07:13:04;99606.09;;;13.97;47.38
75629;BME280;64213;46.452;16.994;2023-04-12T07:16:09;99603.31;;;13.99;47.84
75629;BME280;64213;46.452;16.994;2023-04-12T07:19:11;99596.84;;;13.91;47.69
75629;BME280;64213;46.452;16.994;2023-04-12T07:22:14;99595.47;;;13.55;45.59
75629;BME280;64213;46.452;16.994;2023-04-12T07:25:16;99590.72;;;13.38;46.07
75629;BME280;64213;46.452;16.994;2023-04-12T07:28:19;99586.69;;;14.06;45.94
75629;BME280;64213;46.452;16.994;2023-04-12T07:31:22;99589.34;;;14.27;44.03
75629;BME280;64213;46.452;16.994;2023-04-12T07:34:24;99577.53;;;14.91;43.78
75629;BME280;64213;46.452;16.994;2023-04-12T07:37:27;99578.12;;;15.24;42.94
75629;BME280;64213;46.452;16.994;2023-04-12T07:40:30;99567.53;;;16.47;40.50
75629;BME280;64213;46.452;16.994;2023-04-12T07:43:32;99566.56;;;16.38;40.58
75629;BME280;64213;46.452;16.994;2023-04-12T07:46:34;99552.28;;;15.53;39.01
75629;BME280;64213;46.452;16.994;2023-04-12T07:49:37;99557.56;;;16.12;38.89
75629;BME280;64213;46.452;16.994;2023-04-12T07:52:39;99565.22;;;15.29;38.75
75629;BME280;64213;46.452;16.994;2023-04-12T07:55:41;99561.31;;;15.33;39.74
75629;BME280;64213;46.452;16.994;2023-04-12T07:58:44;99557.34;;;14.88;39.56
75629;BME280;64213;46.452;16.994;2023-04-12T08:01:46;99546.97;;;15.34;39.56
75629;BME280;64213;46.452;16.994;2023-04-12T08:04:52;99546.34;;;16.08;37.86
75629;BME280;64213;46.452;16.994;2023-04-12T08:07:57;99541.84;;;16.36;36.59
75629;BME280;64213;46.452;16.994;2023-04-12T08:11:00;99529.03;;;17.13;36.09
75629;BME280;64213;46.452;16.994;2023-04-12T08:14:03;99531.22;;;17.53;35.35
75629;BME280;64213;46.452;16.994;2023-04-12T08:17:06;99536.75;;;15.10;38.65
75629;BME280;64213;46.452;16.994;2023-04-12T08:20:09;99539.44;;;15.20;38.05
75629;BME280;64213;46.452;16.994;2023-04-12T08:23:11;99539.53;;;14.99;38.23
75629;BME280;64213;46.452;16.994;2023-04-12T08:26:14;99530.56;;;15.68;37.70
75629;BME280;64213;46.452;16.994;2023-04-12T08:29:16;99527.87;;;14.71;39.45
75629;BME280;64213;46.452;16.994;2023-04-12T08:32:19;99522.28;;;14.93;38.88
75629;BME280;64213;46.452;16.994;2023-04-12T08:35:22;99522.31;;;15.13;38.27
75629;BME280;64213;46.452;16.994;2023-04-12T08:38:24;99517.56;;;15.06;37.77
75629;BME280;64213;46.452;16.994;2023-04-12T08:41:45;99508.00;;;15.33;37.88
75629;BME280;64213;46.452;16.994;2023-04-12T08:44:49;99509.34;;;15.56;37.29
75629;BME280;64213;46.452;16.994;2023-04-12T08:47:53;99507.72;;;15.46;37.90
75629;BME280;64213;46.452;16.994;2023-04-12T08:50:55;99505.19;;;15.34;38.42
75629;BME280;64213;46.452;16.994;2023-04-12T08:53:58;99498.09;;;15.82;37.71
75629;BME280;64213;46.452;16.994;2023-04-12T08:57:03;99490.87;;;17.47;34.08
75629;BME280;64213;46.452;16.994;2023-04-12T09:00:08;99498.03;;;18.16;33.95
75629;BME280;64213;46.452;16.994;2023-04-12T09:03:12;99493.69;;;18.23;33.50
75629;BME280;64213;46.452;16.994;2023-04-12T09:06:15;99480.03;;;18.93;32.30
75629;BME280;64213;46.452;16.994;2023-04-12T09:09:17;99494.72;;;17.70;33.85
75629;BME280;64213;46.452;16.994;2023-04-12T09:12:19;99479.09;;;18.60;32.74
75629;BME280;64213;46.452;16.994;2023-04-12T09:15:25;99472.44;;;18.72;32.31
75629;BME280;64213;46.452;16.994;2023-04-12T09:18:27;99464.47;;;19.21;30.90
75629;BME280;64213;46.452;16.994;2023-04-12T09:21:31;99455.22;;;20.12;30.03
75629;BME280;64213;46.452;16.994;2023-04-12T09:24:49;99444.31;;;19.50;30.73
75629;BME280;64213;46.452;16.994;2023-04-12T09:27:54;99436.50;;;19.96;29.68
75629;BME280;64213;46.452;16.994;2023-04-12T09:30:59;99424.31;;;19.85;30.11
75629;BME280;64213;46.452;16.994;2023-04-12T09:34:08;99435.13;;;20.39;29.50
75629;BME280;64213;46.452;16.994;2023-04-12T09:37:14;99418.22;;;20.85;28.69
75629;BME280;64213;46.452;16.994;2023-04-12T09:40:22;99432.34;;;20.87;27.63
75629;BME280;64213;46.452;16.994;2023-04-12T09:43:38;99432.91;;;19.72;29.71
75629;BME280;64213;46.452;16.994;2023-04-12T09:46:50;99439.41;;;20.57;28.02
75629;BME280;64213;46.452;16.994;2023-04-12T09:49:53;99431.38;;;20.80;27.54
75629;BME280;64213;46.452;16.994;2023-04-12T09:52:56;99424.81;;;22.02;26.40
75629;BME280;64213;46.452;16.994;2023-04-12T09:56:03;99411.06;;;21.00;27.21
75629;BME280;64213;46.452;16.994;2023-04-12T09:59:06;99412.41;;;21.19;25.97
75629;BME280;64213;46.452;16.994;2023-04-12T10:02:18;99400.97;;;20.48;26.65
75629;BME280;64213;46.452;16.994;2023-04-12T10:05:22;99384.47;;;22.82;24.12
